sensor_id;sensor_type;location;lat;lon;timestamp;pressure;altitude;pressure_sealevel;temperature
11424;BMP180;5768;51.476;7.210;2022-12-07T00:00:00;100281.00;;;9.30
11424;BMP180;5768;51.476;7.210;2022-12-07T00:05:05;100276.00;;;9.40
11424;BMP180;5768;51.476;7.210;2022-12-07T00:10:08;100290.00;;;9.40
11424;BMP180;5768;51.476;7.210;2022-12-07T00:15:10;100286.00;;;9.40
11424;BMP180;5768;51.476;7.210;2022-12-07T00:20:14;100284.00;;;9.40
11424;BMP180;5768;51.476;7.210;2022-12-07T00:25:16;100288.00;;;9.50
11424;BMP180;5768;51.476;7.210;2022-12-07T00:30:21;100284.00;;;9.40
11424;BMP180;5768;51.476;7.210;2022-12-07T00:35:27;100276.00;;;9.40
11424;BMP180;5768;51.476;7.210;2022-12-07T00:40:30;100276.00;;;9.50
11424;BMP180;5768;51.476;7.210;2022-12-07T00:45:35;100266.00;;;9.50
11424;BMP180;5768;51.476;7.210;2022-12-07T00:50:40;100272.00;;;9.50
11424;BMP180;5768;51.476;7.210;2022-12-07T00:55:43;100270.00;;;9.50
11424;BMP180;5768;51.476;7.210;2022-12-07T01:00:46;100261.00;;;9.60
11424;BMP180;5768;51.476;7.210;2022-12-07T01:05:54;100254.00;;;9.60
11424;BMP180;5768;51.476;7.210;2022-12-07T01:11:02;100265.00;;;9.50
11424;BMP180;5768;51.476;7.210;2022-12-07T01:16:06;100264.00;;;9.50
11424;BMP180;5768;51.476;7.210;2022-12-07T01:21:17;100262.00;;;9.50
11424;BMP180;5768;51.476;7.210;2022-12-07T01:26:24;100263.00;;;9.50
11424;BMP180;5768;51.476;7.210;2022-12-07T01:31:28;100264.00;;;9.40
11424;BMP180;5768;51.476;7.210;2022-12-07T01:36:34;100255.00;;;9.30
11424;BMP180;5768;51.476;7.210;2022-12-07T01:41:39;100263.00;;;9.20
11424;BMP180;5768;51.476;7.210;2022-12-07T01:46:49;100262.00;;;9.20
11424;BMP180;5768;51.476;7.210;2022-12-07T01:52:01;100261.00;;;9.20
11424;BMP180;5768;51.476;7.210;2022-12-07T01:57:08;100264.00;;;9.10
11424;BMP180;5768;51.476;7.210;2022-12-07T02:02:20;100255.00;;;9.10
11424;BMP180;5768;51.476;7.210;2022-12-07T02:07:28;100254.00;;;9.00
11424;BMP180;5768;51.476;7.210;2022-12-07T02:12:31;100240.00;;;8.90
11424;BMP180;5768;51.476;7.210;2022-12-07T02:17:44;100235.00;;;8.80
11424;BMP180;5768;51.476;7.210;2022-12-07T02:23:12;100253.00;;;8.90
11424;BMP180;5768;51.476;7.210;2022-12-07T02:28:31;100244.00;;;8.90
11424;BMP180;5768;51.476;7.210;2022-12-07T02:33:43;100245.00;;;8.80
11424;BMP180;5768;51.476;7.210;2022-12-07T02:39:06;100241.00;;;8.90
11424;BMP180;5768;51.476;7.210;2022-12-07T02:44:17;100244.00;;;8.80
11424;BMP180;5768;51.476;7.210;2022-12-07T02:49:26;100256.00;;;8.80
11424;BMP180;5768;51.476;7.210;2022-12-07T02:54:30;100247.00;;;8.70
11424;BMP180;5768;51.476;7.210;2022-12-07T02:59:48;100238.00;;;8.60
11424;BMP180;5768;51.476;7.210;2022-12-07T03:05:21;100254.00;;;8.50
11424;BMP180;5768;51.476;7.210;2022-12-07T03:10:35;100242.00;;;8.30
11424;BMP180;5768;51.476;7.210;2022-12-07T03:15:47;100249.00;;;8.30
11424;BMP180;5768;51.476;7.210;2022-12-07T03:21:12;100250.00;;;8.10
11424;BMP180;5768;51.476;7.210;2022-12-07T03:26:19;100239.00;;;8.00
11424;BMP180;5768;51.476;7.210;2022-12-07T03:31:35;100245.00;;;7.80
11424;BMP180;5768;51.476;7.210;2022-12-07T03:36:47;100235.00;;;7.80
11424;BMP180;5768;51.476;7.210;2022-12-07T03:41:55;100230.00;;;7.70
11424;BMP180;5768;51.476;7.210;2022-12-07T03:47:04;100227.00;;;7.70
11424;BMP180;5768;51.476;7.210;2022-12-07T03:52:19;100231.00;;;7.80
11424;BMP180;5768;51.476;7.210;2022-12-07T03:57:28;100234.00;;;7.70
11424;BMP180;5768;51.476;7.210;2022-12-07T04:02:33;100231.00;;;7.90
11424;BMP180;5768;51.476;7.210;2022-12-07T04:07:40;100229.00;;;8.10
11424;BMP180;5768;51.476;7.210;2022-12-07T04:12:42;100240.00;;;8.20
11424;BMP180;5768;51.476;7.210;2022-12-07T04:17:45;100233.00;;;8.30
11424;BMP180;5768;51.476;7.210;2022-12-07T04:22:53;100226.00;;;8.30
11424;BMP180;5768;51.476;7.210;2022-12-07T04:27:55;100229.00;;;8.30
11424;BMP180;5768;51.476;7.210;2022-12-07T04:32:58;100237.00;;;8.30
11424;BMP180;5768;51.476;7.210;2022-12-07T04:38:02;100226.00;;;8.20
11424;BMP180;5768;51.476;7.210;2022-12-07T04:43:04;100231.00;;;8.10
11424;BMP180;5768;51.476;7.210;2022-12-07T04:48:06;100231.00;;;8.10
11424;BMP180;5768;51.476;7.210;2022-12-07T04:53:10;100232.00;;;8.10
11424;BMP180;5768;51.476;7.210;2022-12-07T04:58:12;100226.00;;;8.10
11424;BMP180;5768;51.476;7.210;2022-12-07T05:03:15;100233.00;;;8.20
11424;BMP180;5768;51.476;7.210;2022-12-07T05:08:19;100223.00;;;8.10
11424;BMP180;5768;51.476;7.210;2022-12-07T05:13:21;100235.00;;;8.10
11424;BMP180;5768;51.476;7.210;2022-12-07T05:18:25;100228.00;;;8.10
11424;BMP180;5768;51.476;7.210;2022-12-07T05:23:29;100227.00;;;7.90
11424;BMP180;5768;51.476;7.210;2022-12-07T05:28:31;100222.00;;;7.90
11424;BMP180;5768;51.476;7.210;2022-12-07T05:33:33;100231.00;;;8.00
11424;BMP180;5768;51.476;7.210;2022-12-07T05:38:39;100230.00;;;8.00
11424;BMP180;5768;51.476;7.210;2022-12-07T05:43:41;100220.00;;;8.10
11424;BMP180;5768;51.476;7.210;2022-12-07T05:48:44;100217.00;;;8.10
11424;BMP180;5768;51.476;7.210;2022-12-07T05:54:02;100222.00;;;8.20
11424;BMP180;5768;51.476;7.210;2022-12-07T05:59:07;100211.00;;;8.30
11424;BMP180;5768;51.476;7.210;2022-12-07T06:04:27;100217.00;;;8.30
11424;BMP180;5768;51.476;7.210;2022-12-07T06:09:32;100219.00;;;8.40
11424;BMP180;5768;51.476;7.210;2022-12-07T06:14:35;100227.00;;;8.50
11424;BMP180;5768;51.476;7.210;2022-12-07T06:19:38;100219.00;;;8.50
11424;BMP180;5768;51.476;7.210;2022-12-07T06:24:41;100217.00;;;8.40
11424;BMP180;5768;51.476;7.210;2022-12-07T06:29:44;100227.00;;;8.40
11424;BMP180;5768;51.476;7.210;2022-12-07T06:34:46;100225.00;;;8.50
11424;BMP180;5768;51.476;7.210;2022-12-07T06:39:51;100223.00;;;8.50
11424;BMP180;5768;51.476;7.210;2022-12-07T06:44:54;100233.00;;;8.50
11424;BMP180;5768;51.476;7.210;2022-12-07T06:49:56;100238.00;;;8.50
11424;BMP180;5768;51.476;7.210;2022-12-07T06:55:06;100248.00;;;8.50
11424;BMP180;5768;51.476;7.210;2022-12-07T07:00:10;100234.00;;;8.40
11424;BMP180;5768;51.476;7.210;2022-12-07T07:05:13;100233.00;;;8.40
11424;BMP180;5768;51.476;7.210;2022-12-07T07:10:18;100235.00;;;8.20
11424;BMP180;5768;51.476;7.210;2022-12-07T07:15:20;100234.00;;;8.20
11424;BMP180;5768;51.476;7.210;2022-12-07T07:20:23;100233.00;;;8.30
11424;BMP180;5768;51.476;7.210;2022-12-07T07:25:30;100236.00;;;8.30
11424;BMP180;5768;51.476;7.210;2022-12-07T07:30:34;100235.00;;;8.30
11424;BMP180;5768;51.476;7.210;2022-12-07T07:35:37;100240.00;;;8.40
11424;BMP180;5768;51.476;7.210;2022-12-07T07:40:41;100242.00;;;8.40
11424;BMP180;5768;51.476;7.210;2022-12-07T07:45:45;100248.00;;;8.40
11424;BMP180;5768;51.476;7.210;2022-12-07T07:50:49;100245.00;;;8.40
11424;BMP180;5768;51.476;7.210;2022-12-07T07:55:54;100241.00;;;8.40
11424;BMP180;5768;51.476;7.210;2022-12-07T08:00:56;100251.00;;;8.30
11424;BMP180;5768;51.476;7.210;2022-12-07T08:06:02;100243.00;;;8.40
11424;BMP180;5768;51.476;7.210;2022-12-07T08:11:09;100242.00;;;8.60
11424;BMP180;5768;51.476;7.210;2022-12-07T08:16:13;100251.00;;;8.60
11424;BMP180;5768;51.476;7.210;2022-12-07T08:21:16;100250.00;;;8.60
11424;BMP180;5768;51.476;7.210;2022-12-07T08:26:20;100256.00;;;8.80
11424;BMP180;5768;51.476;7.210;2022-12-07T08:31:27;100259.00;;;8.80
11424;BMP180;5768;51.476;7.210;2022-12-07T08:36:30;100257.00;;;8.90
11424;BMP180;5768;51.476;7.210;2022-12-07T08:41:34;100261.00;;;8.90
11424;BMP180;5768;51.476;7.210;2022-12-07T08:46:42;100265.00;;;9.00
11424;BMP180;5768;51.476;7.210;2022-12-07T08:51:51;100266.00;;;9.20
11424;BMP180;5768;51.476;7.210;2022-12-07T08:56:56;100267.00;;;9.20
11424;BMP180;5768;51.476;7.210;2022-12-07T09:02:00;100271.00;;;9.30
11424;BMP180;5768;51.476;7.210;2022-12-07T09:07:11;100266.00;;;9.30
11424;BMP180;5768;51.476;7.210;2022-12-07T09:12:15;100267.00;;;9.20
11424;BMP180;5768;51.476;7.210;2022-12-07T09:17:17;100271.00;;;9.10
11424;BMP180;5768;51.476;7.210;2022-12-07T09:22:19;100268.00;;;9.20
11424;BMP180;5768;51.476;7.210;2022-12-07T09:27:24;100277.00;;;9.30
11424;BMP180;5768;51.476;7.210;2022-12-07T09:32:26;100269.00;;;9.50
11424;BMP180;5768;51.476;7.210;2022-12-07T09:37:28;100273.00;;;9.60
11424;BMP180;5768;51.476;7.210;2022-12-07T09:42:37;100285.00;;;9.50
11424;BMP180;5768;51.476;7.210;2022-12-07T09:47:40;100273.00;;;9.50
11424;BMP180;5768;51.476;7.210;2022-12-07T09:52:45;100261.00;;;9.40
11424;BMP180;5768;51.476;7.210;2022-12-07T09:57:50;100264.00;;;9.50
11424;BMP180;5768;51.476;7.210;2022-12-07T10:03:00;100259.00;;;9.70
11424;BMP180;5768;51.476;7.210;2022-12-07T10:08:09;100258.00;;;9.80
11424;BMP180;5768;51.476;7.210;2022-12-07T10:13:19;100243.00;;;9.60
11424;BMP180;5768;51.476;7.210;2022-12-07T10:18:29;100254.00;;;9.70
11424;BMP180;5768;51.476;7.210;2022-12-07T10:23:32;100250.00;;;9.70
11424;BMP180;5768;51.476;7.210;2022-12-07T10:28:37;100244.00;;;9.70
11424;BMP180;5768;51.476;7.210;2022-12-07T10:33:50;100239.00;;;9.80
11424;BMP180;5768;51.476;7.210;2022-12-07T10:39:00;100242.00;;;9.90
11424;BMP180;5768;51.476;7.210;2022-12-07T10:44:04;100224.00;;;10.00
11424;BMP180;5768;51.476;7.210;2022-12-07T10:54:57;100212.00;;;9.90
11424;BMP180;5768;51.476;7.210;2022-12-07T11:00:13;100216.00;;;9.90
11424;BMP180;5768;51.476;7.210;2022-12-07T11:05:26;100214.00;;;9.90
11424;BMP180;5768;51.476;7.210;2022-12-07T11:10:40;100212.00;;;9.90
11424;BMP180;5768;51.476;7.210;2022-12-07T11:16:06;100207.00;;;9.90
11424;BMP180;5768;51.476;7.210;2022-12-07T11:21:24;100209.00;;;10.00
11424;BMP180;5768;51.476;7.210;2022-12-07T11:26:48;100184.00;;;10.20
11424;BMP180;5768;51.476;7.210;2022-12-07T11:32:04;100192.00;;;10.20
11424;BMP180;5768;51.476;7.210;2022-12-07T11:37:19;100183.00;;;10.20
11424;BMP180;5768;51.476;7.210;2022-12-07T11:42:29;100170.00;;;10.40
11424;BMP180;5768;51.476;7.210;2022-12-07T11:47:43;100169.00;;;10.60
11424;BMP180;5768;51.476;7.210;2022-12-07T11:52:53;100166.00;;;10.50
11424;BMP180;5768;51.476;7.210;2022-12-07T11:58:05;100163.00;;;10.40
11424;BMP180;5768;51.476;7.210;2022-12-07T12:03:22;100163.00;;;10.40
11424;BMP180;5768;51.476;7.210;2022-12-07T12:08:39;100171.00;;;10.30
11424;BMP180;5768;51.476;7.210;2022-12-07T12:19:58;100152.00;;;10.10
11424;BMP180;5768;51.476;7.210;2022-12-07T12:25:06;100147.00;;;10.20
11424;BMP180;5768;51.476;7.210;2022-12-07T12:30:31;100148.00;;;10.20
11424;BMP180;5768;51.476;7.210;2022-12-07T12:35:39;100148.00;;;10.30
11424;BMP180;5768;51.476;7.210;2022-12-07T12:40:43;100148.00;;;10.30
11424;BMP180;5768;51.476;7.210;2022-12-07T12:45:46;100140.00;;;10.40
11424;BMP180;5768;51.476;7.210;2022-12-07T12:56:41;100127.00;;;10.80
11424;BMP180;5768;51.476;7.210;2022-12-07T13:01:46;100121.00;;;10.70
11424;BMP180;5768;51.476;7.210;2022-12-07T13:06:51;100119.00;;;10.60
11424;BMP180;5768;51.476;7.210;2022-12-07T13:12:02;100112.00;;;10.70
11424;BMP180;5768;51.476;7.210;2022-12-07T13:17:09;100108.00;;;10.70
11424;BMP180;5768;51.476;7.210;2022-12-07T13:22:53;100121.00;;;10.80
11424;BMP180;5768;51.476;7.210;2022-12-07T13:28:10;100112.00;;;10.80
11424;BMP180;5768;51.476;7.210;2022-12-07T13:33:18;100116.00;;;10.90
11424;BMP180;5768;51.476;7.210;2022-12-07T13:38:29;100104.00;;;10.80
11424;BMP180;5768;51.476;7.210;2022-12-07T13:43:44;100095.00;;;11.00
11424;BMP180;5768;51.476;7.210;2022-12-07T13:48:49;100082.00;;;10.90
11424;BMP180;5768;51.476;7.210;2022-12-07T13:53:55;100078.00;;;10.70
11424;BMP180;5768;51.476;7.210;2022-12-07T13:58:57;100067.00;;;10.70
11424;BMP180;5768;51.476;7.210;2022-12-07T14:04:39;100080.00;;;10.70
11424;BMP180;5768;51.476;7.210;2022-12-07T14:09:53;100080.00;;;10.10
11424;BMP180;5768;51.476;7.210;2022-12-07T14:14:57;100061.00;;;9.50
11424;BMP180;5768;51.476;7.210;2022-12-07T14:25:43;100055.00;;;9.30
11424;BMP180;5768;51.476;7.210;2022-12-07T14:30:46;100051.00;;;9.40
11424;BMP180;5768;51.476;7.210;2022-12-07T14:35:51;100046.00;;;9.30
11424;BMP180;5768;51.476;7.210;2022-12-07T14:41:00;100042.00;;;9.10
11424;BMP180;5768;51.476;7.210;2022-12-07T14:46:21;100030.00;;;9.00
11424;BMP180;5768;51.476;7.210;2022-12-07T14:51:26;100035.00;;;8.90
11424;BMP180;5768;51.476;7.210;2022-12-07T14:56:30;100039.00;;;8.80
11424;BMP180;5768;51.476;7.210;2022-12-07T15:01:32;100032.00;;;8.80
11424;BMP180;5768;51.476;7.210;2022-12-07T15:06:34;100028.00;;;8.80
11424;BMP180;5768;51.476;7.210;2022-12-07T15:11:38;100033.00;;;8.70
11424;BMP180;5768;51.476;7.210;2022-12-07T15:16:42;100031.00;;;8.80
11424;BMP180;5768;51.476;7.210;2022-12-07T15:21:45;100027.00;;;8.80
11424;BMP180;5768;51.476;7.210;2022-12-07T15:26:49;100018.00;;;8.80
11424;BMP180;5768;51.476;7.210;2022-12-07T15:31:59;100018.00;;;8.70
11424;BMP180;5768;51.476;7.210;2022-12-07T15:37:01;100014.00;;;8.70
11424;BMP180;5768;51.476;7.210;2022-12-07T15:42:05;100019.00;;;8.70
11424;BMP180;5768;51.476;7.210;2022-12-07T15:47:07;100016.00;;;8.70
11424;BMP180;5768;51.476;7.210;2022-12-07T15:52:09;100021.00;;;8.70
11424;BMP180;5768;51.476;7.210;2022-12-07T15:57:13;100021.00;;;8.70
11424;BMP180;5768;51.476;7.210;2022-12-07T16:02:15;100015.00;;;8.60
11424;BMP180;5768;51.476;7.210;2022-12-07T16:07:18;100010.00;;;8.60
11424;BMP180;5768;51.476;7.210;2022-12-07T16:12:23;99998.00;;;8.50
11424;BMP180;5768;51.476;7.210;2022-12-07T16:17:26;99993.00;;;8.60
11424;BMP180;5768;51.476;7.210;2022-12-07T16:22:28;99989.00;;;8.60
11424;BMP180;5768;51.476;7.210;2022-12-07T16:27:32;99994.00;;;8.60
11424;BMP180;5768;51.476;7.210;2022-12-07T16:32:34;99995.00;;;8.60
11424;BMP180;5768;51.476;7.210;2022-12-07T16:37:37;100001.00;;;8.60
11424;BMP180;5768;51.476;7.210;2022-12-07T16:42:40;99992.00;;;8.60
11424;BMP180;5768;51.476;7.210;2022-12-07T16:47:43;99984.00;;;8.60
11424;BMP180;5768;51.476;7.210;2022-12-07T16:52:46;99975.00;;;8.60
11424;BMP180;5768;51.476;7.210;2022-12-07T16:57:50;99971.00;;;8.60
11424;BMP180;5768;51.476;7.210;2022-12-07T17:02:52;99969.00;;;8.60
11424;BMP180;5768;51.476;7.210;2022-12-07T17:07:57;99975.00;;;8.70
11424;BMP180;5768;51.476;7.210;2022-12-07T17:13:00;99966.00;;;8.70
11424;BMP180;5768;51.476;7.210;2022-12-07T17:18:03;99966.00;;;8.70
11424;BMP180;5768;51.476;7.210;2022-12-07T17:23:06;99952.00;;;8.70
11424;BMP180;5768;51.476;7.210;2022-12-07T17:28:09;99954.00;;;8.80
11424;BMP180;5768;51.476;7.210;2022-12-07T17:33:12;99944.00;;;8.90
11424;BMP180;5768;51.476;7.210;2022-12-07T17:38:14;99944.00;;;9.00
11424;BMP180;5768;51.476;7.210;2022-12-07T17:43:21;99950.00;;;9.10
11424;BMP180;5768;51.476;7.210;2022-12-07T17:48:23;99951.00;;;9.00
11424;BMP180;5768;51.476;7.210;2022-12-07T17:53:28;99941.00;;;8.90
11424;BMP180;5768;51.476;7.210;2022-12-07T17:58:34;99931.00;;;8.90
11424;BMP180;5768;51.476;7.210;2022-12-07T18:03:36;99928.00;;;8.80
11424;BMP180;5768;51.476;7.210;2022-12-07T18:08:38;99922.00;;;8.80
11424;BMP180;5768;51.476;7.210;2022-12-07T18:13:42;99922.00;;;8.80
11424;BMP180;5768;51.476;7.210;2022-12-07T18:18:45;99925.00;;;8.80
11424;BMP180;5768;51.476;7.210;2022-12-07T18:23:50;99932.00;;;8.90
11424;BMP180;5768;51.476;7.210;2022-12-07T18:28:57;99917.00;;;8.90
11424;BMP180;5768;51.476;7.210;2022-12-07T18:34:02;99918.00;;;8.90
11424;BMP180;5768;51.476;7.210;2022-12-07T18:39:05;99902.00;;;8.90
11424;BMP180;5768;51.476;7.210;2022-12-07T18:44:12;99905.00;;;8.80
11424;BMP180;5768;51.476;7.210;2022-12-07T18:49:14;99896.00;;;8.80
11424;BMP180;5768;51.476;7.210;2022-12-07T18:54:17;99902.00;;;8.80
11424;BMP180;5768;51.476;7.210;2022-12-07T18:59:20;99897.00;;;8.70
11424;BMP180;5768;51.476;7.210;2022-12-07T19:04:40;99899.00;;;8.70
11424;BMP180;5768;51.476;7.210;2022-12-07T19:09:42;99893.00;;;8.70
11424;BMP180;5768;51.476;7.210;2022-12-07T19:14:46;99900.00;;;8.60
11424;BMP180;5768;51.476;7.210;2022-12-07T19:19:48;99898.00;;;8.70
11424;BMP180;5768;51.476;7.210;2022-12-07T19:24:53;99901.00;;;8.70
11424;BMP180;5768;51.476;7.210;2022-12-07T19:29:57;99898.00;;;8.80
11424;BMP180;5768;51.476;7.210;2022-12-07T19:34:59;99898.00;;;8.90
11424;BMP180;5768;51.476;7.210;2022-12-07T19:40:09;99903.00;;;8.90
11424;BMP180;5768;51.476;7.210;2022-12-07T19:45:12;99883.00;;;8.90
11424;BMP180;5768;51.476;7.210;2022-12-07T19:50:15;99879.00;;;8.90
11424;BMP180;5768;51.476;7.210;2022-12-07T19:55:17;99874.00;;;8.80
11424;BMP180;5768;51.476;7.210;2022-12-07T20:00:22;99866.00;;;8.70
11424;BMP180;5768;51.476;7.210;2022-12-07T20:05:24;99862.00;;;8.60
11424;BMP180;5768;51.476;7.210;2022-12-07T20:10:26;99857.00;;;8.60
11424;BMP180;5768;51.476;7.210;2022-12-07T20:15:30;99855.00;;;8.50
11424;BMP180;5768;51.476;7.210;2022-12-07T20:20:35;99841.00;;;8.50
11424;BMP180;5768;51.476;7.210;2022-12-07T20:25:40;99842.00;;;8.50
11424;BMP180;5768;51.476;7.210;2022-12-07T20:30:50;99842.00;;;8.40
11424;BMP180;5768;51.476;7.210;2022-12-07T20:36:01;99836.00;;;8.30
11424;BMP180;5768;51.476;7.210;2022-12-07T20:41:06;99837.00;;;8.40
11424;BMP180;5768;51.476;7.210;2022-12-07T20:46:30;99830.00;;;8.40
11424;BMP180;5768;51.476;7.210;2022-12-07T20:51:36;99820.00;;;8.30
11424;BMP180;5768;51.476;7.210;2022-12-07T20:56:39;99809.00;;;8.30
11424;BMP180;5768;51.476;7.210;2022-12-07T21:01:43;99800.00;;;8.30
11424;BMP180;5768;51.476;7.210;2022-12-07T21:06:49;99804.00;;;8.40
11424;BMP180;5768;51.476;7.210;2022-12-07T21:11:52;99824.00;;;8.30
11424;BMP180;5768;51.476;7.210;2022-12-07T21:16:56;99807.00;;;8.30
11424;BMP180;5768;51.476;7.210;2022-12-07T21:21:58;99809.00;;;8.20
11424;BMP180;5768;51.476;7.210;2022-12-07T21:27:07;99804.00;;;8.20
11424;BMP180;5768;51.476;7.210;2022-12-07T21:32:12;99802.00;;;8.20
11424;BMP180;5768;51.476;7.210;2022-12-07T21:37:14;99798.00;;;8.30
11424;BMP180;5768;51.476;7.210;2022-12-07T21:42:17;99798.00;;;8.20
11424;BMP180;5768;51.476;7.210;2022-12-07T21:47:23;99802.00;;;8.20
11424;BMP180;5768;51.476;7.210;2022-12-07T21:52:25;99788.00;;;8.20
11424;BMP180;5768;51.476;7.210;2022-12-07T21:57:27;99787.00;;;8.30
11424;BMP180;5768;51.476;7.210;2022-12-07T22:02:31;99783.00;;;8.30
11424;BMP180;5768;51.476;7.210;2022-12-07T22:07:34;99785.00;;;8.30
11424;BMP180;5768;51.476;7.210;2022-12-07T22:12:36;99782.00;;;8.30
11424;BMP180;5768;51.476;7.210;2022-12-07T22:17:46;99781.00;;;8.20
11424;BMP180;5768;51.476;7.210;2022-12-07T22:22:51;99776.00;;;8.20
11424;BMP180;5768;51.476;7.210;2022-12-07T22:27:53;99779.00;;;8.30
11424;BMP180;5768;51.476;7.210;2022-12-07T22:33:00;99776.00;;;8.30
11424;BMP180;5768;51.476;7.210;2022-12-07T22:38:03;99779.00;;;8.30
11424;BMP180;5768;51.476;7.210;2022-12-07T22:43:05;99772.00;;;8.30
11424;BMP180;5768;51.476;7.210;2022-12-07T22:48:09;99754.00;;;8.30
11424;BMP180;5768;51.476;7.210;2022-12-07T22:53:11;99756.00;;;8.30
11424;BMP180;5768;51.476;7.210;2022-12-07T22:58:14;99736.00;;;8.20
11424;BMP180;5768;51.476;7.210;2022-12-07T23:03:21;99729.00;;;8.20
11424;BMP180;5768;51.476;7.210;2022-12-07T23:08:26;99720.00;;;8.20
11424;BMP180;5768;51.476;7.210;2022-12-07T23:13:28;99721.00;;;8.10
11424;BMP180;5768;51.476;7.210;2022-12-07T23:18:34;99712.00;;;8.00
11424;BMP180;5768;51.476;7.210;2022-12-07T23:23:39;99713.00;;;8.00
11424;BMP180;5768;51.476;7.210;2022-12-07T23:28:42;99713.00;;;8.00
11424;BMP180;5768;51.476;7.210;2022-12-07T23:33:46;99708.00;;;7.90
11424;BMP180;5768;51.476;7.210;2022-12-07T23:38:50;99699.00;;;7.80
11424;BMP180;5768;51.476;7.210;2022-12-07T23:43:54;99693.00;;;7.90
11424;BMP180;5768;51.476;7.210;2022-12-07T23:49:00;99699.00;;;7.90
11424;BMP180;5768;51.476;7.210;2022-12-07T23:54:03;99686.00;;;7.90
11424;BMP180;5768;51.476;7.210;2022-12-07T23:59:06;99689.00;;;7.90
